Charlottesville (CHO/KCHO)

Map

Destinations

Information

Location
Charlottesville, VA
Local Time
22:26 / 10:26 pm
GMT Time
02:26 / 2:26 am
Gates
Unassigned
No FAA reported delays
METAR KCHO 280153Z 00000KT 10SM FEW050 SCT070 BKN090 20/15 A2994 RMK AO2 SLP134 T02000150
TAF KCHO 272340Z 2800/2824 15004KT P6SM BKN060 FM280700 VRB03KT 2SM BR BKN070 FM281200 VRB03KT 3SM -SHRA BR BKN050 FM281500 21006KT P6SM -SHRA BKN060 FM282200 25006KT P6SM -SHRA BKN050
  • No charts available